createdAt,value
2018-09-28T00:00:46.546Z,731.46
2018-09-28T00:01:47.020Z,731.45
2018-09-28T00:02:47.496Z,731.42
2018-09-28T00:03:47.969Z,731.48
2018-09-28T00:04:48.444Z,731.44
2018-09-28T00:05:48.917Z,731.42
2018-09-28T00:06:49.393Z,731.41
2018-09-28T00:07:50.425Z,731.38
2018-09-28T00:08:50.340Z,731.39
2018-09-28T00:09:50.817Z,731.38
2018-09-28T00:10:51.290Z,731.44
2018-09-28T00:11:51.764Z,731.42
2018-09-28T00:12:52.237Z,731.25
2018-09-28T00:13:52.714Z,731.33
2018-09-28T00:14:53.186Z,731.31
2018-09-28T00:15:53.661Z,731.29
2018-09-28T00:16:54.148Z,731.29
2018-09-28T00:17:54.608Z,731.25
2018-09-28T00:18:55.081Z,731.25
2018-09-28T00:19:55.556Z,731.27
2018-09-28T00:20:56.030Z,731.19
2018-09-28T00:21:56.501Z,731.25
2018-09-28T00:22:56.975Z,731.18
2018-09-28T00:23:57.449Z,731.25
2018-09-28T00:24:57.920Z,731.18
2018-09-28T00:25:58.462Z,731.14
2018-09-28T00:26:58.867Z,731.09
2018-09-28T00:27:59.340Z,731.10
2018-09-28T00:28:59.810Z,731.08
2018-09-28T00:30:00.284Z,731.12
2018-09-28T00:31:00.756Z,731.10
2018-09-28T00:32:01.228Z,731.08
2018-09-28T00:33:01.700Z,731.08
2018-09-28T00:34:02.171Z,731.07
2018-09-28T00:35:02.646Z,731.06
2018-09-28T00:36:03.206Z,731.06
2018-09-28T00:37:03.589Z,730.98
2018-09-28T00:38:04.057Z,730.99
2018-09-28T00:39:04.529Z,731.05
2018-09-28T00:40:04.999Z,731.06
2018-09-28T00:41:05.471Z,730.85
2018-09-28T00:42:05.940Z,731.00
2018-09-28T00:43:06.415Z,730.92
2018-09-28T00:44:06.883Z,730.95
2018-09-28T00:45:07.352Z,730.95
2018-09-28T00:46:07.822Z,730.94
2018-09-28T00:47:08.292Z,730.94
2018-09-28T00:48:08.769Z,730.88
2018-09-28T00:49:09.232Z,730.91
2018-09-28T00:50:09.705Z,730.83
2018-09-28T00:51:10.175Z,730.84
2018-09-28T00:52:10.645Z,730.80
2018-09-28T00:53:11.115Z,730.86
2018-09-28T00:54:11.587Z,730.87
2018-09-28T00:55:12.056Z,730.84
2018-09-28T00:56:12.538Z,730.78
2018-09-28T00:57:12.996Z,730.81
2018-09-28T00:58:13.470Z,730.62
2018-09-28T00:59:13.939Z,730.68
2018-09-28T01:00:14.412Z,730.82
2018-09-28T01:01:14.880Z,730.82
2018-09-28T01:02:15.355Z,730.83
2018-09-28T01:03:15.823Z,730.74
2018-09-28T01:04:16.296Z,730.76
2018-09-28T01:05:16.767Z,730.68
2018-09-28T01:06:17.239Z,730.67
2018-09-28T01:07:17.711Z,730.76
2018-09-28T01:08:18.184Z,730.75
2018-09-28T01:09:18.659Z,730.69
2018-09-28T01:10:19.127Z,730.74
2018-09-28T01:11:19.601Z,730.79
2018-09-28T01:12:20.072Z,730.70
2018-09-28T01:13:20.545Z,730.62
2018-09-28T01:14:21.020Z,730.52
2018-09-28T01:15:21.493Z,730.55
2018-09-28T01:16:21.967Z,730.60
2018-09-28T01:17:22.440Z,730.57
2018-09-28T01:18:22.915Z,730.67
2018-09-28T01:19:23.388Z,730.63
2018-09-28T01:20:23.867Z,730.41
2018-09-28T01:21:24.341Z,730.52
2018-09-28T01:22:24.811Z,730.60
2018-09-28T01:23:25.340Z,730.58
2018-09-28T01:24:25.760Z,730.59
2018-09-28T01:25:26.240Z,730.57
2018-09-28T01:26:26.709Z,730.55
2018-09-28T01:27:27.181Z,730.48
2018-09-28T01:28:27.658Z,730.49
2018-09-28T01:29:28.131Z,730.50
2018-09-28T01:30:28.603Z,730.38
2018-09-28T01:31:29.080Z,730.45
2018-09-28T01:32:29.553Z,730.39
2018-09-28T01:33:30.027Z,730.45
2018-09-28T01:34:30.499Z,730.42
2018-09-28T01:35:30.975Z,730.38
2018-09-28T01:36:31.449Z,730.40
2018-09-28T01:37:31.923Z,730.36
2018-09-28T01:38:32.393Z,730.25
2018-09-28T01:39:32.868Z,730.39
2018-09-28T01:40:33.341Z,730.39
2018-09-28T01:41:33.814Z,730.35
2018-09-28T01:42:34.286Z,730.32
2018-09-28T01:43:34.758Z,730.35
2018-09-28T01:44:35.237Z,730.37
2018-09-28T01:45:35.702Z,730.36
2018-09-28T01:46:36.173Z,730.26
2018-09-28T01:47:36.646Z,730.23
2018-09-28T01:48:37.117Z,730.28
2018-09-28T01:49:37.590Z,730.31
2018-09-28T01:50:38.084Z,730.24
2018-09-28T01:51:38.534Z,730.26
2018-09-28T01:52:39.004Z,730.15
2018-09-28T01:53:39.473Z,730.22
2018-09-28T01:54:39.947Z,730.21
2018-09-28T01:55:40.418Z,730.16
2018-09-28T01:56:40.887Z,730.22
2018-09-28T01:57:41.357Z,730.18
2018-09-28T01:58:41.829Z,730.14
2018-09-28T01:59:42.301Z,730.10
2018-09-28T02:00:42.769Z,730.13
2018-09-28T02:01:43.239Z,729.91
2018-09-28T02:02:43.711Z,730.06
2018-09-28T02:03:44.181Z,730.06
2018-09-28T02:04:44.655Z,729.99
2018-09-28T02:05:45.120Z,730.07
2018-09-28T02:06:45.592Z,730.01
2018-09-28T02:07:46.066Z,730.03
2018-09-28T02:08:46.534Z,730.02
2018-09-28T02:09:47.008Z,730.08
2018-09-28T02:10:47.476Z,730.02
2018-09-28T02:11:47.948Z,729.96
2018-09-28T02:12:48.418Z,729.86
2018-09-28T02:13:48.889Z,729.94
2018-09-28T02:14:49.361Z,729.97
2018-09-28T02:15:49.855Z,729.90
2018-09-28T02:16:50.305Z,729.94
2018-09-28T02:17:50.782Z,729.98
2018-09-28T02:18:51.248Z,729.95
2018-09-28T02:19:51.722Z,729.98
2018-09-28T02:20:52.195Z,729.93
2018-09-28T02:21:52.667Z,730.01
2018-09-28T02:22:53.139Z,730.04
2018-09-28T02:23:53.613Z,730.00
2018-09-28T02:24:54.088Z,729.92
2018-09-28T02:25:54.558Z,730.01
2018-09-28T02:26:55.033Z,729.87
2018-09-28T02:27:55.511Z,730.02
2018-09-28T02:28:55.978Z,729.92
2018-09-28T02:29:56.453Z,729.94
2018-09-28T02:30:56.928Z,729.80
2018-09-28T02:31:57.400Z,729.95
2018-09-28T02:32:57.876Z,729.94
2018-09-28T02:33:58.354Z,729.92
2018-09-28T02:34:58.830Z,729.79
2018-09-28T02:35:59.300Z,729.94
2018-09-28T02:36:59.777Z,729.86
2018-09-28T02:38:00.246Z,729.80
2018-09-28T02:39:00.721Z,729.83
2018-09-28T02:40:01.198Z,729.72
2018-09-28T02:41:01.671Z,729.79
2018-09-28T02:42:02.142Z,729.68
2018-09-28T02:43:02.616Z,729.70
2018-09-28T02:44:03.088Z,729.73
2018-09-28T02:45:03.564Z,729.75
2018-09-28T02:46:04.041Z,729.65
2018-09-28T02:47:04.509Z,729.67
2018-09-28T02:48:04.995Z,729.68
2018-09-28T02:49:05.457Z,729.69
2018-09-28T02:50:05.928Z,729.63
2018-09-28T02:51:06.405Z,729.64
2018-09-28T02:52:06.886Z,729.67
2018-09-28T02:53:07.372Z,729.62
2018-09-28T02:54:07.818Z,729.58
2018-09-28T02:55:08.290Z,729.65
2018-09-28T02:56:08.764Z,729.63
2018-09-28T02:57:09.233Z,729.59
2018-09-28T02:58:09.705Z,729.60
2018-09-28T02:59:10.178Z,729.66
2018-09-28T03:00:10.652Z,729.53
2018-09-28T03:01:11.123Z,729.61
2018-09-28T03:02:11.590Z,729.59
2018-09-28T03:03:12.065Z,729.51
2018-09-28T03:04:12.532Z,729.45
2018-09-28T03:05:13.004Z,729.51
2018-09-28T03:06:13.498Z,729.52
2018-09-28T03:07:13.947Z,729.44
2018-09-28T03:08:14.414Z,729.46
2018-09-28T03:09:14.884Z,729.40
2018-09-28T03:10:15.354Z,729.41
2018-09-28T03:11:15.825Z,729.46
2018-09-28T03:12:16.296Z,729.34
2018-09-28T03:13:16.767Z,729.30
2018-09-28T03:14:17.489Z,729.37
2018-09-28T03:15:17.710Z,729.26
2018-09-28T03:16:18.176Z,729.42
2018-09-28T03:17:18.649Z,729.33
2018-09-28T03:18:19.118Z,729.37
2018-09-28T03:19:19.640Z,729.22
2018-09-28T03:20:20.065Z,729.37
2018-09-28T03:21:20.533Z,729.22
2018-09-28T03:22:21.004Z,729.36
2018-09-28T03:23:21.474Z,729.20
2018-09-28T03:24:21.947Z,729.37
2018-09-28T03:25:22.419Z,729.34
2018-09-28T03:26:22.888Z,729.29
2018-09-28T03:27:23.360Z,729.41
2018-09-28T03:28:23.833Z,729.31
2018-09-28T03:29:24.306Z,729.39
2018-09-28T03:30:24.780Z,729.42
2018-09-28T03:31:25.250Z,729.47
2018-09-28T03:32:25.724Z,729.43
2018-09-28T03:33:26.196Z,729.42
2018-09-28T03:34:26.666Z,729.39
2018-09-28T03:35:27.141Z,729.27
2018-09-28T03:36:27.615Z,729.33
2018-09-28T03:37:28.088Z,729.24
2018-09-28T03:38:28.562Z,729.18
2018-09-28T03:39:29.036Z,729.37
2018-09-28T03:40:29.552Z,729.28
2018-09-28T03:41:29.987Z,729.31
2018-09-28T03:42:30.457Z,729.18
2018-09-28T03:43:30.930Z,729.29
2018-09-28T03:44:31.404Z,729.24
2018-09-28T03:45:31.880Z,729.29
2018-09-28T03:46:32.353Z,729.33
2018-09-28T03:47:32.826Z,729.23
2018-09-28T03:48:33.304Z,729.23
2018-09-28T03:49:33.776Z,729.20
2018-09-28T03:50:34.249Z,729.18
2018-09-28T03:51:34.722Z,729.16
2018-09-28T03:52:35.198Z,729.30
2018-09-28T03:53:35.682Z,729.19
2018-09-28T03:54:36.143Z,729.13
2018-09-28T03:55:36.617Z,729.18
2018-09-28T03:56:37.092Z,729.15
2018-09-28T03:57:37.564Z,729.25
2018-09-28T03:58:38.041Z,729.15
2018-09-28T03:59:38.511Z,729.11
2018-09-28T04:00:38.983Z,729.02
2018-09-28T04:01:39.455Z,729.12
2018-09-28T04:02:39.928Z,729.08
2018-09-28T04:03:40.406Z,729.08
2018-09-28T04:04:40.871Z,729.00
2018-09-28T04:05:41.342Z,729.11
2018-09-28T04:06:41.815Z,729.05
2018-09-28T04:07:42.287Z,728.97
2018-09-28T04:08:42.758Z,729.01
2018-09-28T04:09:43.229Z,729.00
2018-09-28T04:10:43.698Z,729.02
2018-09-28T04:11:44.172Z,728.99
2018-09-28T04:12:44.640Z,729.05
2018-09-28T04:13:45.112Z,728.95
2018-09-28T04:14:45.683Z,729.00
2018-09-28T04:15:46.053Z,728.95
2018-09-28T04:16:46.525Z,728.99
2018-09-28T04:17:46.995Z,728.91
2018-09-28T04:18:47.464Z,728.99
2018-09-28T04:19:47.932Z,728.94
2018-09-28T04:20:48.402Z,729.02
2018-09-28T04:21:48.890Z,729.01
2018-09-28T04:22:49.344Z,729.04
2018-09-28T04:23:49.812Z,729.07
2018-09-28T04:24:50.283Z,729.03
2018-09-28T04:25:50.752Z,729.00
2018-09-28T04:26:51.224Z,729.04
2018-09-28T04:27:51.694Z,729.05
2018-09-28T04:28:52.167Z,728.99
2018-09-28T04:29:52.636Z,728.94
2018-09-28T04:30:53.105Z,728.97
2018-09-28T04:31:53.576Z,728.85
2018-09-28T04:32:54.046Z,729.01
2018-09-28T04:33:54.520Z,728.94
2018-09-28T04:34:54.988Z,728.96
2018-09-28T04:35:55.462Z,728.93
2018-09-28T04:36:55.931Z,729.00
2018-09-28T04:37:56.403Z,729.01
2018-09-28T04:38:56.875Z,729.04
2018-09-28T04:39:57.348Z,728.97
2018-09-28T04:40:57.818Z,728.92
2018-09-28T04:41:58.289Z,728.89
2018-09-28T04:42:58.765Z,728.89
2018-09-28T04:43:59.236Z,728.96
2018-09-28T04:44:59.715Z,729.05
2018-09-28T04:46:00.181Z,728.97
2018-09-28T04:47:00.653Z,728.96
2018-09-28T04:49:01.601Z,728.98
2018-09-28T04:50:02.074Z,728.99
2018-09-28T04:51:02.548Z,728.95
2018-09-28T04:52:03.019Z,728.95
2018-09-28T04:53:03.494Z,728.92
2018-09-28T04:54:03.967Z,728.96
2018-09-28T04:55:04.443Z,728.91
2018-09-28T04:56:04.916Z,728.93
2018-09-28T04:57:05.389Z,728.87
2018-09-28T04:58:05.867Z,728.86
2018-09-28T04:59:06.336Z,728.95
2018-09-28T05:00:06.813Z,728.87
2018-09-28T05:01:07.285Z,728.75
2018-09-28T05:02:07.759Z,728.95
2018-09-28T05:03:08.229Z,728.98
2018-09-28T05:04:08.703Z,728.91
2018-09-28T05:05:09.176Z,728.92
2018-09-28T05:06:09.651Z,729.02
2018-09-28T05:07:10.124Z,728.90
2018-09-28T05:08:10.595Z,728.96
2018-09-28T05:09:11.068Z,728.94
2018-09-28T05:10:11.540Z,728.94
2018-09-28T05:11:12.013Z,728.87
2018-09-28T05:12:12.484Z,728.93
2018-09-28T05:13:12.968Z,729.00
2018-09-28T05:14:13.428Z,728.84
2018-09-28T05:15:13.900Z,728.94
2018-09-28T05:16:14.371Z,728.95
2018-09-28T05:17:14.842Z,728.88
2018-09-28T05:18:15.313Z,728.93
2018-09-28T05:19:15.783Z,728.82
2018-09-28T05:20:16.254Z,728.88
2018-09-28T05:21:16.727Z,728.92
2018-09-28T05:22:17.197Z,728.89
2018-09-28T05:23:17.664Z,728.91
2018-09-28T05:24:18.137Z,728.78
2018-09-28T05:25:18.635Z,728.84
2018-09-28T05:26:19.080Z,728.76
2018-09-28T05:27:19.544Z,728.85
2018-09-28T05:28:20.017Z,728.82
2018-09-28T05:29:20.495Z,728.94
2018-09-28T05:30:20.959Z,728.91
2018-09-28T05:31:21.506Z,728.90
2018-09-28T05:32:22.039Z,728.95
2018-09-28T05:33:22.365Z,729.00
2018-09-28T05:34:22.835Z,728.87
2018-09-28T05:35:23.305Z,728.90
2018-09-28T05:36:23.816Z,728.91
2018-09-28T05:37:24.304Z,728.79
2018-09-28T05:38:24.718Z,728.84
2018-09-28T05:39:25.209Z,728.88
2018-09-28T05:40:25.655Z,728.93
2018-09-28T05:41:26.129Z,728.75
2018-09-28T05:42:26.599Z,728.78
2018-09-28T05:43:27.069Z,728.84
2018-09-28T05:44:27.540Z,728.90
2018-09-28T05:45:28.012Z,728.84
2018-09-28T05:46:28.528Z,728.85
2018-09-28T05:47:28.952Z,728.77
2018-09-28T05:48:29.425Z,728.96
2018-09-28T05:49:29.898Z,728.88
2018-09-28T05:50:30.369Z,728.67
2018-09-28T05:51:30.920Z,728.78
2018-09-28T05:52:31.315Z,728.85
2018-09-28T05:53:31.787Z,728.70
2018-09-28T05:54:32.262Z,728.77
2018-09-28T05:55:32.730Z,728.71
2018-09-28T05:56:33.203Z,728.78
2018-09-28T05:57:33.678Z,728.71
2018-09-28T05:58:34.210Z,728.81
2018-09-28T05:59:34.628Z,728.85
2018-09-28T06:00:35.100Z,728.80
2018-09-28T06:01:35.572Z,728.76
2018-09-28T06:02:36.046Z,728.84
2018-09-28T06:03:36.521Z,728.83
2018-09-28T06:04:36.994Z,728.83
2018-09-28T06:05:37.583Z,728.79
2018-09-28T06:06:37.948Z,728.84
2018-09-28T06:07:38.417Z,728.83
2018-09-28T06:08:38.891Z,728.76
2018-09-28T06:09:39.362Z,728.79
2018-09-28T06:10:39.846Z,728.81
2018-09-28T06:11:40.310Z,728.69
2018-09-28T06:12:40.784Z,728.72
2018-09-28T06:13:41.257Z,728.61
2018-09-28T06:14:41.750Z,728.83
2018-09-28T06:15:42.208Z,728.83
2018-09-28T06:16:42.677Z,728.82
2018-09-28T06:18:43.673Z,728.73
2018-09-28T06:19:44.100Z,728.78
2018-09-28T06:20:44.569Z,728.79
2018-09-28T06:21:45.042Z,728.87
2018-09-28T06:22:45.515Z,728.84
2018-09-28T06:23:45.990Z,728.86
2018-09-28T06:24:46.459Z,728.81
2018-09-28T06:25:46.970Z,728.89
2018-09-28T06:26:47.405Z,728.83
2018-09-28T06:27:47.874Z,728.81
2018-09-28T06:28:48.349Z,728.70
2018-09-28T06:29:48.833Z,728.80
2018-09-28T06:30:49.293Z,728.75
2018-09-28T06:31:49.761Z,728.70
2018-09-28T06:32:50.232Z,728.75
2018-09-28T06:33:50.703Z,728.85
2018-09-28T06:34:51.175Z,728.89
2018-09-28T06:35:51.694Z,728.81
2018-09-28T06:36:52.117Z,728.77
2018-09-28T06:37:52.586Z,728.80
2018-09-28T06:38:53.057Z,728.95
2018-09-28T06:39:53.526Z,728.88
2018-09-28T06:40:53.998Z,728.83
2018-09-28T06:41:54.536Z,728.81
2018-09-28T06:42:54.937Z,728.82
2018-09-28T06:43:55.410Z,728.79
2018-09-28T06:44:55.880Z,728.72
2018-09-28T06:45:56.350Z,728.71
2018-09-28T06:46:56.822Z,728.72
2018-09-28T06:47:57.339Z,728.77
2018-09-28T06:48:57.760Z,728.75
2018-09-28T06:49:58.233Z,728.71
2018-09-28T06:50:58.755Z,728.84
2018-09-28T06:51:59.175Z,728.63
2018-09-28T06:52:59.644Z,728.67
2018-09-28T06:55:00.589Z,728.75
2018-09-28T06:56:01.059Z,728.75
2018-09-28T06:57:01.532Z,728.74
2018-09-28T06:58:02.023Z,728.74
2018-09-28T06:59:02.473Z,728.81
2018-09-28T07:00:02.998Z,728.87
2018-09-28T07:01:03.418Z,728.84
2018-09-28T07:02:03.892Z,728.83
2018-09-28T07:03:04.365Z,728.91
2018-09-28T07:04:04.898Z,728.87
2018-09-28T07:05:05.309Z,728.91
2018-09-28T07:06:05.789Z,728.93
2018-09-28T07:07:06.259Z,728.87
2018-09-28T07:08:06.731Z,728.90
2018-09-28T07:09:07.204Z,728.95
2018-09-28T07:10:07.680Z,728.97
2018-09-28T07:11:08.157Z,728.84
2018-09-28T07:12:08.658Z,728.90
2018-09-28T07:13:09.102Z,728.99
2018-09-28T07:14:09.576Z,728.96
2018-09-28T07:15:10.051Z,728.98
2018-09-28T07:16:10.540Z,729.00
2018-09-28T07:17:11.001Z,728.88
2018-09-28T07:18:11.489Z,729.00
2018-09-28T07:19:11.955Z,729.04
2018-09-28T07:20:12.424Z,728.91
2018-09-28T07:21:12.897Z,728.85
2018-09-28T07:22:13.372Z,728.88
2018-09-28T07:23:13.847Z,728.94
2018-09-28T07:24:14.342Z,728.93
2018-09-28T07:25:14.886Z,728.89
2018-09-28T07:26:15.321Z,728.93
2018-09-28T07:27:15.742Z,728.85
2018-09-28T07:28:16.216Z,728.95
2018-09-28T07:29:16.691Z,728.86
2018-09-28T07:30:17.223Z,728.96
2018-09-28T07:31:17.637Z,728.92
2018-09-28T07:32:18.109Z,728.87
2018-09-28T07:33:18.583Z,728.86
2018-09-28T07:34:19.056Z,728.81
2018-09-28T07:35:19.531Z,728.81
2018-09-28T07:36:20.106Z,728.72
2018-09-28T07:37:20.603Z,728.74
2018-09-28T07:38:20.950Z,728.84
2018-09-28T07:39:21.420Z,728.80
2018-09-28T07:40:21.891Z,728.79
2018-09-28T07:41:22.414Z,728.95
2018-09-28T07:42:22.902Z,728.84
2018-09-28T07:43:23.309Z,728.89
2018-09-28T07:44:23.778Z,728.86
2018-09-28T07:45:24.250Z,728.91
2018-09-28T07:46:24.824Z,728.96
2018-09-28T07:47:25.200Z,728.90
2018-09-28T07:48:25.666Z,728.82
2018-09-28T07:49:26.141Z,728.81
2018-09-28T07:50:26.608Z,728.85
2018-09-28T07:51:27.078Z,728.80
2018-09-28T07:52:27.550Z,728.87
2018-09-28T07:53:28.024Z,728.92
2018-09-28T07:54:28.492Z,728.91
2018-09-28T07:55:28.962Z,728.94
2018-09-28T07:56:29.431Z,728.96
2018-09-28T07:57:29.904Z,729.08
2018-09-28T07:58:30.374Z,728.93
2018-09-28T07:59:30.846Z,728.95
2018-09-28T08:00:31.317Z,728.92
2018-09-28T08:01:31.786Z,728.93
2018-09-28T08:02:32.259Z,729.03
2018-09-28T08:03:32.728Z,729.00
2018-09-28T08:04:33.200Z,728.98
2018-09-28T08:05:33.673Z,728.98
2018-09-28T08:06:34.144Z,729.03
2018-09-28T08:07:34.616Z,728.96
2018-09-28T08:08:35.087Z,728.97
2018-09-28T08:09:35.558Z,728.94
2018-09-28T08:10:36.039Z,728.95
2018-09-28T08:11:36.503Z,728.95
2018-09-28T08:12:36.974Z,728.92
2018-09-28T08:13:37.447Z,728.84
2018-09-28T08:14:37.919Z,728.89
2018-09-28T08:15:38.392Z,728.83
2018-09-28T08:16:38.865Z,728.93
2018-09-28T08:17:39.340Z,728.89
2018-09-28T08:18:39.813Z,728.86
2018-09-28T08:19:40.287Z,728.80
2018-09-28T08:20:40.762Z,728.80
2018-09-28T08:21:41.234Z,728.77
2018-09-28T08:22:41.710Z,728.90
2018-09-28T08:23:42.183Z,728.93
2018-09-28T08:24:42.717Z,728.95
2018-09-28T08:25:43.132Z,728.88
2018-09-28T08:26:43.608Z,728.87
2018-09-28T08:27:44.083Z,728.90
2018-09-28T08:28:44.557Z,728.89
2018-09-28T08:29:45.036Z,728.97
2018-09-28T08:30:45.507Z,728.96
2018-09-28T08:31:45.983Z,728.94
2018-09-28T08:32:46.457Z,728.93
2018-09-28T08:33:46.931Z,728.99
2018-09-28T08:34:47.408Z,728.98
2018-09-28T08:35:47.881Z,728.89
2018-09-28T08:36:48.417Z,729.07
2018-09-28T08:37:48.832Z,728.94
2018-09-28T08:38:49.305Z,729.09
2018-09-28T08:39:49.781Z,729.09
2018-09-28T08:40:50.253Z,728.98
2018-09-28T08:41:50.731Z,729.09
2018-09-28T08:42:51.204Z,729.00
2018-09-28T08:43:51.677Z,729.06
2018-09-28T08:44:52.151Z,729.11
2018-09-28T08:45:52.626Z,729.13
2018-09-28T08:46:53.099Z,729.16
2018-09-28T08:47:53.572Z,729.09
2018-09-28T08:48:54.047Z,729.06
2018-09-28T08:49:54.519Z,729.07
2018-09-28T08:50:54.994Z,729.03
2018-09-28T08:51:55.467Z,729.02
2018-09-28T08:52:55.941Z,729.10
2018-09-28T08:53:56.412Z,729.03
2018-09-28T08:54:56.887Z,729.04
2018-09-28T08:55:57.361Z,729.00
2018-09-28T08:56:57.830Z,728.99
2018-09-28T08:57:58.303Z,729.04
2018-09-28T08:58:58.774Z,728.92
2018-09-28T08:59:59.250Z,728.97
2018-09-28T09:00:59.720Z,728.97
2018-09-28T09:02:00.218Z,728.99
2018-09-28T09:03:00.664Z,728.91
2018-09-28T09:04:01.137Z,728.92
2018-09-28T09:05:01.608Z,728.92
2018-09-28T09:06:02.082Z,728.97
2018-09-28T09:07:02.552Z,728.92
2018-09-28T09:08:03.024Z,728.96
2018-09-28T09:09:03.497Z,728.87
2018-09-28T09:10:03.969Z,728.87
2018-09-28T09:11:04.445Z,728.94
2018-09-28T09:12:04.911Z,728.93
2018-09-28T09:13:05.386Z,728.93
2018-09-28T09:14:05.853Z,728.93
2018-09-28T09:15:06.325Z,728.90
2018-09-28T09:16:06.796Z,728.85
2018-09-28T09:17:07.268Z,728.86
2018-09-28T09:18:07.823Z,728.91
2018-09-28T09:19:08.210Z,728.86
2018-09-28T09:20:08.685Z,728.87
2018-09-28T09:21:09.151Z,728.87
2018-09-28T09:22:09.622Z,728.90
2018-09-28T09:23:10.094Z,728.81
2018-09-28T09:24:10.566Z,728.88
2018-09-28T09:25:11.035Z,728.85
2018-09-28T09:26:11.507Z,728.88
2018-09-28T09:27:11.977Z,728.91
2018-09-28T09:28:12.449Z,729.00
2018-09-28T09:29:12.918Z,728.87
2018-09-28T09:30:13.422Z,728.89
2018-09-28T09:31:13.860Z,728.88
2018-09-28T09:32:14.333Z,728.93
2018-09-28T09:33:14.805Z,728.95
2018-09-28T09:34:15.276Z,728.87
2018-09-28T09:35:15.749Z,728.84
2018-09-28T09:36:16.219Z,728.85
2018-09-28T09:37:16.691Z,728.73
2018-09-28T09:38:17.164Z,728.80
2018-09-28T09:39:17.638Z,728.77
2018-09-28T09:40:18.112Z,728.79
2018-09-28T09:41:18.584Z,728.70
2018-09-28T09:42:19.060Z,728.81
2018-09-28T09:43:19.531Z,728.73
2018-09-28T09:44:20.004Z,728.78
2018-09-28T09:45:20.478Z,728.74
2018-09-28T09:46:20.957Z,728.76
2018-09-28T09:47:21.435Z,728.84
2018-09-28T09:48:21.951Z,728.82
2018-09-28T09:49:22.377Z,728.88
2018-09-28T09:50:22.852Z,728.80
2018-09-28T09:51:23.328Z,728.87
2018-09-28T09:52:23.804Z,728.73
2018-09-28T09:53:24.277Z,728.81
2018-09-28T09:54:24.752Z,728.76
2018-09-28T09:55:25.227Z,728.83
2018-09-28T09:56:25.703Z,728.81
2018-09-28T09:57:26.178Z,728.80
2018-09-28T09:58:26.654Z,728.76
2018-09-28T09:59:27.129Z,728.75
2018-09-28T10:00:27.604Z,728.77
2018-09-28T10:01:28.080Z,728.73
2018-09-28T10:02:28.603Z,728.75
2018-09-28T10:03:29.029Z,728.73
2018-09-28T10:04:29.504Z,728.75
2018-09-28T10:05:29.983Z,728.68
2018-09-28T10:06:30.456Z,728.70
2018-09-28T10:07:30.928Z,728.68
2018-09-28T10:08:31.403Z,728.77
2018-09-28T10:09:31.884Z,728.73
2018-09-28T10:10:32.353Z,728.77
2018-09-28T10:11:32.826Z,728.72
2018-09-28T10:12:33.424Z,728.75
2018-09-28T10:13:33.779Z,728.78
2018-09-28T10:14:34.249Z,728.76
2018-09-28T10:15:34.724Z,728.74
2018-09-28T10:16:35.201Z,728.80
2018-09-28T10:17:35.673Z,728.75
2018-09-28T10:18:36.146Z,728.72
2018-09-28T10:19:36.638Z,728.75
2018-09-28T10:20:37.094Z,728.69
2018-09-28T10:21:37.570Z,728.78
2018-09-28T10:22:38.042Z,728.75
2018-09-28T10:23:38.516Z,728.75
2018-09-28T10:24:38.997Z,728.75
2018-09-28T10:25:39.472Z,728.73
2018-09-28T10:26:39.988Z,728.72
2018-09-28T10:27:40.442Z,728.73
2018-09-28T10:28:40.962Z,728.73
2018-09-28T10:29:41.355Z,728.64
2018-09-28T10:30:41.828Z,728.69
2018-09-28T10:31:42.303Z,728.69
2018-09-28T10:32:42.775Z,728.66
2018-09-28T10:33:43.339Z,728.68
2018-09-28T10:34:43.802Z,728.75
2018-09-28T10:35:44.194Z,728.73
2018-09-28T10:36:44.667Z,728.72
2018-09-28T10:37:45.142Z,728.70
2018-09-28T10:38:45.613Z,728.68
2018-09-28T10:39:46.118Z,728.72
2018-09-28T10:40:46.813Z,728.73
2018-09-28T10:41:47.029Z,728.66
2018-09-28T10:42:47.501Z,728.73
2018-09-28T10:43:47.974Z,728.72
2018-09-28T10:44:48.447Z,728.66
2018-09-28T10:45:48.940Z,728.64
2018-09-28T10:46:49.396Z,728.66
2018-09-28T10:47:49.863Z,728.66
2018-09-28T10:48:50.336Z,728.66
2018-09-28T10:49:50.808Z,728.66
2018-09-28T10:50:51.284Z,728.62
2018-09-28T10:51:51.869Z,728.58
2018-09-28T10:52:52.247Z,728.62
2018-09-28T10:53:52.697Z,728.56
2018-09-28T10:54:53.168Z,728.60
2018-09-28T10:55:53.641Z,728.56
2018-09-28T10:56:54.115Z,728.62
2018-09-28T10:57:54.586Z,728.57
2018-09-28T10:58:55.130Z,728.56
2018-09-28T10:59:55.529Z,728.57
2018-09-28T11:00:56.001Z,728.51
2018-09-28T11:01:56.472Z,728.54
2018-09-28T11:02:56.942Z,728.50
2018-09-28T11:03:57.417Z,728.53
2018-09-28T11:04:57.888Z,728.46
2018-09-28T11:05:58.360Z,728.41
2018-09-28T11:06:58.836Z,728.48
2018-09-28T11:07:59.302Z,728.43
2018-09-28T11:08:59.840Z,728.45
2018-09-28T11:10:00.247Z,728.40
2018-09-28T11:11:00.718Z,728.35
2018-09-28T11:12:01.189Z,728.41
2018-09-28T11:13:01.662Z,728.43
2018-09-28T11:14:02.136Z,728.35
2018-09-28T11:15:02.605Z,728.38
2018-09-28T11:16:03.077Z,728.42
2018-09-28T11:17:03.547Z,728.43
2018-09-28T11:18:04.018Z,728.40
2018-09-28T11:19:04.599Z,728.37
2018-09-28T11:20:04.965Z,728.40
2018-09-28T11:21:05.436Z,728.36
2018-09-28T11:22:05.905Z,728.43
2018-09-28T11:23:06.376Z,728.34
2018-09-28T11:24:06.847Z,728.34
2018-09-28T11:25:07.320Z,728.27
2018-09-28T11:26:07.793Z,728.33
2018-09-28T11:27:08.268Z,728.26
2018-09-28T11:28:08.738Z,728.30
2018-09-28T11:29:09.206Z,728.29
2018-09-28T11:30:09.677Z,728.29
2018-09-28T11:31:10.151Z,728.26
2018-09-28T11:32:10.619Z,728.26
2018-09-28T11:33:11.104Z,728.27
2018-09-28T11:34:11.564Z,728.25
2018-09-28T11:35:12.034Z,728.26
2018-09-28T11:36:12.505Z,728.24
2018-09-28T11:37:12.977Z,728.22
2018-09-28T11:38:13.448Z,728.22
2018-09-28T11:39:13.957Z,728.24
2018-09-28T11:40:14.391Z,728.24
2018-09-28T11:41:14.862Z,728.24
2018-09-28T11:42:15.333Z,728.23
2018-09-28T11:43:15.891Z,728.17
2018-09-28T11:44:16.279Z,728.21
2018-09-28T11:45:16.794Z,728.23
2018-09-28T11:46:17.219Z,728.26
2018-09-28T11:47:17.688Z,728.17
2018-09-28T11:48:18.161Z,728.26
2018-09-28T11:49:18.634Z,728.23
2018-09-28T11:50:19.104Z,728.17
2018-09-28T11:51:19.639Z,728.23
2018-09-28T11:52:20.049Z,728.16
2018-09-28T11:53:20.619Z,728.19
2018-09-28T11:54:20.989Z,728.14
2018-09-28T11:55:21.464Z,728.19
2018-09-28T11:56:21.931Z,728.17
2018-09-28T11:57:22.460Z,728.14
2018-09-28T11:58:22.875Z,728.20
2018-09-28T11:59:23.347Z,728.18
2018-09-28T12:00:23.816Z,728.17
2018-09-28T12:01:24.288Z,728.10
2018-09-28T12:02:24.761Z,728.09
2018-09-28T12:03:25.321Z,728.14
2018-09-28T12:04:25.726Z,728.06
2018-09-28T12:05:26.234Z,728.09
2018-09-28T12:06:26.749Z,728.08
2018-09-28T12:07:27.168Z,728.06
2018-09-28T12:08:27.666Z,728.01
2018-09-28T12:09:28.118Z,728.03
2018-09-28T12:10:28.553Z,727.98
2018-09-28T12:11:29.019Z,728.03
2018-09-28T12:12:29.814Z,728.01
2018-09-28T12:13:30.084Z,727.97
2018-09-28T12:14:30.456Z,727.93
2018-09-28T12:15:31.153Z,727.92
2018-09-28T12:16:31.845Z,727.95
2018-09-28T12:17:31.860Z,727.98
2018-09-28T12:18:32.325Z,727.94
2018-09-28T12:19:32.794Z,727.98
2018-09-28T12:20:33.264Z,727.93
2018-09-28T12:21:33.959Z,727.92
2018-09-28T12:22:34.231Z,727.97
2018-09-28T12:23:35.812Z,727.97
2018-09-28T12:24:35.209Z,727.95
2018-09-28T12:25:35.649Z,727.94
2018-09-28T12:26:36.090Z,727.92
2018-09-28T12:27:36.782Z,727.94
2018-09-28T12:28:37.087Z,727.94
2018-09-28T12:29:37.536Z,727.87
2018-09-28T12:30:38.065Z,727.82
2018-09-28T12:31:38.431Z,727.81
2018-09-28T12:32:38.904Z,727.82
2018-09-28T12:33:39.428Z,727.78
2018-09-28T12:34:39.846Z,727.81
2018-09-28T12:35:40.433Z,727.74
2018-09-28T12:36:40.818Z,727.78
2018-09-28T12:37:41.262Z,727.80